Latest Weather Observations for Richmond

IDN60901

Issued at 7:11 pm EST Friday 31 July 2015 (issued every 10 minutes, with the page automatically refreshed every 10 minutes)

About weather observations | Map of Sydney area stations | Latest observations for Sydney area | Other Formats
Station Details ID: 067105 Name: RICHMOND RAAF Lat: -33.60 Lon: 150.78 Height: 19.0 m
Data from the previous 72 hours. | See also: Recent months at Richmond
Date/Time
EST
Tmp

°C
App
Tmp
°C
Dew
Point
°C
Rel
Hum
%
Delta-T

°C
Wind Press
QNH
hPa
Press
MSL
hPa
Rain
since
9 am
mm
Dir
 
Spd
km/h
Gust
km/h
Spd
kts
Gust
kts
31/07:00pm 11.1 9.6 5.2 67 2.7 NW 2 9 1 5 1020.4 1020.4 0.0
31/06:30pm 12.7 10.0 5.6 62 3.3 N 9 15 5 8 1020.0 1020.0 0.0
31/05:30pm 15.8 13.1 5.7 51 4.8 E 9 11 5 6 1019.3 1019.3 0.0
31/05:00pm 17.8 15.1 5.7 45 5.9 E 9 13 5 7 1019.1 1019.1 0.0
31/04:30pm 18.7 15.6 5.5 42 6.4 E 11 15 6 8 1018.9 1018.9 0.0
31/04:00pm 19.1 15.5 5.2 40 6.7 ESE 13 17 7 9 1019.0 1019.0 0.0
31/03:30pm 19.3 15.7 5.0 39 6.9 E 13 19 7 10 1019.0 1019.0 0.0
31/03:00pm 19.8 16.9 4.7 37 7.3 NE 9 19 5 10 1019.0 1019.0 0.0
31/02:30pm 19.8 17.4 5.1 38 7.2 NNE 7 15 4 8 1019.2 1019.2 0.0
31/02:00pm 19.8 16.5 4.7 37 7.3 NNE 11 17 6 9 1019.3 1019.3 0.0
31/01:30pm 19.1 16.2 4.5 38 7.0 NNW 9 20 5 11 1019.6 1019.6 0.0
31/01:00pm 19.6 16.1 5.3 39 7.0 N 13 30 7 16 1020.0 1020.0 0.0
31/12:30pm 18.8 15.4 3.8 37 7.1 N 11 15 6 8 1020.4 1020.4 0.0
31/12:00pm 18.6 15.5 3.6 37 7.0 W 9 24 5 13 1021.0 1021.0 0.0
31/11:30am 17.9 13.9 2.6 36 7.0 W 13 22 7 12 1021.2 1021.2 0.0
31/11:00am 18.1 14.3 3.9 39 6.7 WNW 13 20 7 11 1021.6 1021.6 0.0
31/10:30am 17.5 14.3 5.1 44 6.0 NNW 11 19 6 10 1021.7 1021.7 0.0
31/10:00am 16.0 13.0 5.9 51 4.9 NW 11 15 6 8 1021.8 1021.8 0.0
31/09:30am 14.1 12.8 6.2 59 3.8 W 2 7 1 4 1022.0 1022.0 0.0
31/09:00am 13.3 10.9 7.1 66 3.0 NNW 9 11 5 6 1021.9 1021.9 0.0
31/08:30am 11.7 8.7 6.2 69 2.6 N 11 15 6 8 1021.8 1021.8 0.0
31/08:00am 11.1 9.9 6.5 73 2.2 NNE 2 9 1 5 1021.6 1021.6 0.0
31/07:30am 9.0 7.0 6.1 82 1.3 N 6 11 3 6 1021.2 1021.2 0.0
31/07:00am 7.6 5.0 4.4 80 1.4 NNE 7 9 4 5 1021.0 1021.0 0.0
31/06:30am 8.0 5.5 4.9 81 1.4 N 7 9 4 5 1020.6 1020.6 0.0
31/06:00am 8.6 6.3 4.8 77 1.7 NNW 6 9 3 5 1019.9 1019.9 0.0
31/05:30am 9.4 6.4 4.2 70 2.3 WNW 9 11 5 6 1019.6 1019.6 0.0
31/05:00am 10.9 7.3 5.2 68 2.6 NW 13 17 7 9 1019.4 1019.4 0.0
31/04:30am 11.2 8.3 4.7 64 2.9 N 9 13 5 7 1019.2 1019.2 0.0
31/04:00am 10.1 7.3 3.4 63 2.9 NNE 7 9 4 5 1019.1 1019.1 0.0
31/03:30am 10.8 7.6 3.1 59 3.4 NE 9 13 5 7 1018.9 1018.9 0.0
31/03:00am 11.7 8.7 4.0 59 3.4 NNE 9 11 5 6 1019.1 1019.1 0.0
31/02:30am 12.7 10.3 4.2 56 3.9 N 6 9 3 5 1019.1 1019.1 0.0
31/02:00am 12.2 8.8 4.2 58 3.6 NNW 11 15 6 8 1019.1 1019.1 0.0
31/01:30am 12.5 9.0 3.7 55 3.9 N 11 17 6 9 1019.1 1019.1 0.0
31/01:00am 12.8 9.4 4.0 55 4.0 NW 11 17 6 9 1019.3 1019.3 0.0
31/12:30am 12.6 9.2 4.1 56 3.8 NW 11 15 6 8 1019.1 1019.1 0.0
31/12:00am 12.8 8.6 4.0 55 4.0 NNW 15 22 8 12 1018.8 1018.8 0.0
 
Date/Time
EST
Tmp

°C
App
Tmp
°C
Dew
Point
°C
Rel
Hum
%
Delta-T

°C
Wind Press
QNH
hPa
Press
MSL
hPa
Rain
since
9 am
mm
Dir
 
Spd
km/h
Gust
km/h
Spd
kts
Gust
kts
30/11:30pm 13.3 9.7 5.0 57 3.8 NNE 13 19 7 10 1018.8 1018.8 0.0
30/11:00pm 12.7 9.5 4.9 59 3.6 NNE 11 17 6 9 1018.8 1018.8 0.0
30/10:30pm 13.3 9.6 4.7 56 4.0 N 13 17 7 9 1019.3 1019.3 0.0
30/10:00pm 13.9 9.5 4.8 54 4.2 N 17 24 9 13 1019.1 1019.1 0.0
30/09:30pm 13.5 9.8 4.6 55 4.1 NNW 13 17 7 9 1019.6 1019.6 0.0
30/09:00pm 13.4 9.3 4.6 55 4.0 NW 15 19 8 10 1019.9 1019.9 0.0
30/08:30pm 13.5 10.4 3.8 52 4.4 NNW 9 15 5 8 1019.9 1019.9 0.0
30/08:00pm 13.8 11.2 4.1 52 4.4 NW 7 13 4 7 1019.9 1019.9 0.0
30/07:30pm 13.6 10.3 4.5 54 4.2 N 11 15 6 8 1020.1 1020.1 0.0
30/07:00pm 15.1 11.8 4.8 50 4.8 NNW 11 15 6 8 1020.0 1020.0 0.0
30/06:30pm 14.9 11.2 4.6 50 4.8 N 13 17 7 9 1019.5 1019.5 0.0
30/06:00pm 15.5 10.7 4.5 48 5.1 N 19 22 10 12 1019.2 1019.2 0.0
30/05:30pm 15.8 10.8 4.8 48 5.2 N 20 28 11 15 1018.9 1018.9 0.0
30/05:00pm 16.1 11.2 5.1 48 5.2 N 20 26 11 14 1018.7 1018.7 0.0
30/04:30pm 16.9 12.1 4.9 45 5.7 N 19 26 10 14 1019.0 1019.0 0.0
30/04:00pm 17.7 12.9 4.6 42 6.2 N 19 26 10 14 1019.1 1019.1 0.0
30/03:30pm 18.4 13.3 4.2 39 6.7 N 20 28 11 15 1019.5 1019.5 0.0
30/03:00pm 19.0 13.0 3.6 36 7.2 N 24 35 13 19 1019.7 1019.7 0.0
30/02:30pm 19.5 13.6 4.0 36 7.4 N 24 35 13 19 1020.0 1020.0 0.0
30/02:00pm 18.9 12.6 3.9 37 7.1 N 26 39 14 21 1020.5 1020.5 0.0
30/01:30pm 19.3 13.2 4.6 38 7.1 NNW 26 35 14 19 1021.1 1021.1 0.0
30/01:00pm 19.1 13.3 4.5 38 7.0 NNW 24 32 13 17 1021.3 1021.3 0.0
30/12:30pm 19.1 13.5 3.3 35 7.4 NNW 22 32 12 17 1021.8 1021.8 0.0
30/12:00pm 18.5 13.7 5.4 42 6.3 NNE 20 28 11 15 1022.4 1022.4 0.0
30/11:30am 16.8 14.2 6.0 49 5.3 NNE 9 13 5 7 1023.3 1023.4 0.0
30/11:00am 14.5 12.9 8.2 66 3.1 N 6 11 3 6 1024.4 1024.5 0.0
30/10:30am 11.8 10.4 8.8 82 1.5 S 6 7 3 4 1025.5 1025.6 0.0
30/10:00am 9.6 8.3 7.7 88 0.9 SSE 4 7 2 4 1026.1 1026.2 0.0
30/09:30am 7.6 6.2 7.3 98 0.1 SW 4 7 2 4 1026.5 1026.6 0.0
30/09:13am 7.1 5.2 6.8 98 0.1 SSW 6 9 3 5 1026.6 1026.7 0.0
30/09:09am 6.8 4.7 6.5 98 0.1 SSW 7 9 4 5 1026.7 1026.8 0.0
30/09:00am 6.0 3.7 5.7 98 0.1 SSW 7 9 4 5 1026.7 1026.8 0.0
30/08:30am 5.3 2.8 5.0 98 0.1 SE 7 11 4 6 1026.9 1027.0 0.0
30/08:07am 4.2 2.9 3.9 98 0.1 CALM 0 0 0 0 1027.0 1027.1 0.0
30/08:00am 4.1 2.4 3.8 98 0.1 NW 2 6 1 3 1027.0 1027.1 0.0
30/07:30am 3.3 1.4 3.0 98 0.1 SSW 2 6 1 3 1026.8 1026.9 0.0
30/07:00am 3.1 1.6 2.8 98 0.1 CALM 0 0 0 0 1026.6 1026.7 0.0
30/06:30am 2.9 0.0 2.6 98 0.1 S 7 11 4 6 1026.7 1026.8 0.0
30/06:00am 3.1 0.4 2.8 98 0.1 W 6 6 3 3 1026.7 1026.8 0.0
30/05:30am 3.1 0.8 2.8 98 0.1 NE 4 11 2 6 1026.5 1026.6 0.0
30/05:00am 2.5 0.9 2.2 98 0.1 CALM 0 0 0 0 1027.0 1027.1 0.0
30/04:30am 2.9 1.3 2.6 98 0.1 CALM 0 0 0 0 1026.9 1027.0 0.0
30/04:23am 3.0 1.4 2.7 98 0.1 CALM 0 0 0 0 1027.0 1027.1 0.0
30/04:00am 3.9 2.5 3.6 98 0.1 CALM 0 4 0 2 1027.1 1027.2 0.0
30/03:33am 4.0 0.9 3.7 98 0.1 SW 9 9 5 5 1027.4 1027.5 0.0
30/03:30am 4.2 1.2 3.9 98 0.1 SW 9 11 5 6 1027.4 1027.5 0.0
30/03:00am 4.7 3.5 4.4 98 0.1 CALM 0 0 0 0 1027.2 1027.3 0.0
30/02:30am 4.8 2.8 4.5 98 0.1 N 4 6 2 3 1027.5 1027.6 0.0
30/02:19am 4.8 2.4 4.5 98 0.1 NNE 6 7 3 4 1027.8 1027.9 0.0
30/02:12am 4.9 2.9 4.6 98 0.1 N 4 7 2 4 1027.9 1028.0 0.0
30/02:00am 5.0 3.8 4.7 98 0.1 CALM 0 0 0 0 1028.1 1028.2 0.0
30/01:52am 4.9 3.7 4.6 98 0.1 CALM 0 0 0 0 1028.1 1028.2 0.0
30/01:45am 5.1 3.9 4.8 98 0.1 CALM 0 0 0 0 1028.0 1028.1 0.0
30/01:31am 5.2 4.1 4.9 98 0.1 CALM 0 0 0 0 1028.4 1028.5 0.0
30/01:30am 5.4 4.3 5.1 98 0.1 CALM 0 0 0 0 1028.4 1028.5 0.0
30/01:08am 5.5 4.4 5.2 98 0.1 CALM 0 0 0 0 1028.9 1029.0 0.0
30/01:00am 5.8 4.8 5.5 98 0.1 CALM 0 0 0 0 1028.7 1028.8 0.0
30/12:30am 5.7 3.5 5.3 97 0.2 WSW 6 7 3 4 1029.1 1029.2 0.0
30/12:00am 6.8 4.9 6.5 98 0.1 E 6 7 3 4 1029.3 1029.4 0.0
 
Date/Time
EST
Tmp

°C
App
Tmp
°C
Dew
Point
°C
Rel
Hum
%
Delta-T

°C
Wind Press
QNH
hPa
Press
MSL
hPa
Rain
since
9 am
mm
Dir
 
Spd
km/h
Gust
km/h
Spd
kts
Gust
kts
29/11:30pm 6.4 4.7 6.1 98 0.1 NE 4 9 2 5 1029.6 1029.7 0.0
29/11:00pm 5.9 3.7 5.5 97 0.2 NNE 6 7 3 4 1030.1 1030.2 0.0
29/10:30pm 6.2 5.2 5.8 97 0.2 CALM 0 0 0 0 1030.5 1030.6 0.0
29/10:00pm 5.9 4.8 5.3 96 0.3 CALM 0 0 0 0 1030.6 1030.7 0.0
29/09:30pm 6.4 5.4 5.8 96 0.3 CALM 0 0 0 0 1030.7 1030.8 0.0
29/09:00pm 6.5 5.5 5.6 94 0.4 CALM 0 0 0 0 1030.5 1030.6 0.0
29/08:30pm 7.3 6.4 6.2 93 0.5 CALM 0 0 0 0 1030.4 1030.5 0.0
29/08:00pm 7.7 6.7 5.7 87 0.9 CALM 0 0 0 0 1030.4 1030.5 0.0
29/07:30pm 8.7 7.9 6.5 86 1.0 CALM 0 0 0 0 1030.3 1030.4 0.0
29/07:26pm 8.7 7.9 6.5 86 1.0 CALM 0 0 0 0 1030.3 1030.4 0.0
29/07:07pm 9.5 8.8 6.8 83 1.3 CALM 0 0 0 0 1030.5 1030.6 0.0
29/07:00pm 9.7 9.0 6.8 82 1.3 CALM 0 0 0 0 1030.4 1030.5 0.0
29/06:30pm 9.4 7.3 5.8 78 1.6 SW 6 7 3 4 1030.3 1030.4 0.0
29/06:00pm 10.5 8.8 5.9 73 2.1 S 4 6 2 3 1029.9 1030.0 0.0
29/05:30pm 12.7 11.5 6.5 66 3.0 E 2 6 1 3 1029.5 1029.6 0.0
29/05:00pm 14.4 12.5 6.5 59 3.8 ENE 6 7 3 4 1029.5 1029.6 0.0
29/04:30pm 15.2 12.7 6.5 56 4.2 ENE 9 13 5 7 1029.3 1029.4 0.0
29/04:00pm 16.3 13.1 6.7 53 4.7 NE 13 19 7 10 1029.4 1029.5 0.0
29/03:30pm 16.6 13.3 6.4 51 5.0 ENE 13 19 7 10 1029.5 1029.6 0.0
29/03:00pm 16.5 13.1 5.8 49 5.1 NE 13 19 7 10 1030.0 1030.1 0.0
29/02:30pm 16.9 14.2 5.8 48 5.4 NE 9 13 5 7 1030.4 1030.5 0.0
29/02:00pm 16.3 13.1 5.3 48 5.2 ENE 11 17 6 9 1030.8 1030.9 0.0
29/01:30pm 16.3 13.8 6.4 52 4.8 NE 9 15 5 8 1031.1 1031.2 0.0
29/01:00pm 15.4 12.9 6.4 55 4.3 SE 9 13 5 7 1031.7 1031.8 0.0
29/12:30pm 15.4 13.9 6.9 57 4.2 ENE 4 7 2 4 1032.4 1032.5 0.0
29/12:00pm 15.0 13.6 7.1 59 3.8 E 4 9 2 5 1033.2 1033.3 0.0
29/11:30am 13.1 11.1 6.2 63 3.3 E 6 9 3 5 1033.9 1034.0 0.0
29/11:00am 12.4 10.4 6.2 66 2.9 NE 6 9 3 5 1034.4 1034.5 0.0
29/10:30am 10.9 9.2 6.1 72 2.2 N 4 9 2 5 1035.0 1035.1 0.0
29/10:00am 9.5 7.8 5.7 77 1.7 NNE 4 11 2 6 1035.0 1035.1 0.0
29/09:30am 8.0 6.2 5.5 84 1.1 N 4 6 2 3 1035.4 1035.5 0.0
29/09:00am 6.7 5.2 4.9 88 0.8 NE 2 6 1 3 1035.6 1035.7 0.0
29/08:30am 5.1 3.9 4.4 95 0.3 CALM 0 0 0 0 1035.6 1035.7 0.0
29/08:13am 4.5 3.2 4.2 98 0.1 CALM 0 0 0 0 1035.4 1035.5 0.0
29/08:04am 3.8 1.6 3.5 98 0.1 NE 4 6 2 3 1035.4 1035.5 0.0
29/08:00am 3.4 1.5 3.1 98 0.1 NNE 2 6 1 3 1035.4 1035.5 0.0
29/07:55am 2.7 1.1 2.4 98 0.1 CALM 0 6 0 3 1035.4 1035.5 0.0
29/07:39am 1.4 -0.4 1.1 98 0.1 CALM 0 0 0 0 1035.2 1035.3 0.0
29/07:34am 1.6 -0.2 1.3 98 0.1 CALM 0 0 0 0 1035.1 1035.2 0.0
29/07:30am 1.5 -0.3 1.2 98 0.1 CALM 0 0 0 0 1035.1 1035.2 0.0
29/07:12am 1.4 -1.2 1.1 98 0.1 ENE 4 7 2 4 1034.9 1035.0 0.0
29/07:00am 0.8 -2.8 0.5 98 0.1 ESE 9 11 5 6 1034.8 1034.9 0.0
29/06:45am 0.7 -2.0 0.4 98 0.1 ENE 4 7 2 4 1034.6 1034.7 0.0
29/06:33am 0.3 -1.7 0.0 98 0.1 CALM 0 0 0 0 1034.3 1034.4 0.0
29/06:30am 0.5 -1.5 0.2 98 0.1 CALM 0 0 0 0 1034.2 1034.3 0.0
29/06:29am 0.5 -1.5 0.2 98 0.1 CALM 0 0 0 0 1034.2 1034.3 0.0
29/06:28am 0.5 -1.5 0.2 98 0.1 CALM 0 0 0 0 1034.2 1034.3 0.0
29/06:27am 0.4 -1.6 0.1 98 0.1 CALM 0 0 0 0 1034.2 1034.3 0.0
29/06:16am 0.5 -1.5 0.2 98 0.1 CALM 0 0 0 0 1034.2 1034.3 0.0
29/06:08am 0.7 -1.2 0.4 98 0.1 CALM 0 0 0 0 1034.2 1034.3 0.0
29/06:00am 1.0 -0.9 0.7 98 0.1 CALM 0 0 0 0 1034.1 1034.2 0.0
29/05:55am 0.6 -1.3 0.3 98 0.1 CALM 0 0 0 0 1034.1 1034.2 0.0
29/05:42am 0.5 -1.5 0.2 98 0.1 CALM 0 4 0 2 1033.9 1034.0 0.0
29/05:30am 1.1 -2.1 0.8 98 0.1 SE 7 9 4 5 1034.1 1034.2 0.0
29/05:00am 1.2 -1.8 0.9 98 0.1 N 6 7 3 4 1033.8 1033.9 0.0
29/04:48am 1.6 -0.2 1.3 98 0.1 CALM 0 0 0 0 1033.8 1033.9 0.0
29/04:47am 1.7 -0.1 1.4 98 0.1 CALM 0 0 0 0 1033.8 1033.9 0.0
29/04:43am 1.4 -0.4 1.1 98 0.1 CALM 0 0 0 0 1033.8 1033.9 0.0
29/04:30am 1.4 -0.4 1.1 98 0.1 CALM 0 0 0 0 1033.8 1033.9 0.0
29/04:00am 1.8 0.0 1.5 98 0.1 CALM 0 0 0 0 1033.4 1033.5 0.0
29/03:53am 1.5 -0.3 1.2 98 0.1 CALM 0 7 0 4 1033.4 1033.5 0.0
29/03:38am 1.5 -1.4 1.2 98 0.1 E 6 9 3 5 1033.2 1033.3 0.0
29/03:30am 2.0 0.3 1.7 98 0.1 CALM 0 0 0 0 1033.3 1033.4 0.0
29/03:26am 2.2 0.5 1.9 98 0.1 CALM 0 0 0 0 1033.3 1033.4 0.0
29/03:00am 2.3 0.6 2.0 98 0.1 CALM 0 0 0 0 1033.4 1033.5 0.0
29/02:44am 2.5 0.9 2.2 98 0.1 CALM 0 0 0 0 1033.4 1033.5 0.0
29/02:41am 2.4 0.7 2.1 98 0.1 CALM 0 0 0 0 1033.4 1033.5 0.0
29/02:33am 2.3 0.6 2.0 98 0.1 CALM 0 0 0 0 1033.4 1033.5 0.0
29/02:30am 2.3 0.6 2.0 98 0.1 CALM 0 0 0 0 1033.5 1033.6 0.0
29/02:20am 2.0 0.2 1.4 96 0.2 CALM 0 0 0 0 1033.6 1033.7 0.0
29/02:10am 2.8 1.2 2.5 98 0.1 CALM 0 0 0 0 1033.7 1033.8 0.0
29/02:00am 3.1 1.6 2.8 98 0.1 CALM 0 0 0 0 1033.6 1033.7 0.0
29/01:30am 3.1 1.6 2.8 98 0.1 CALM 0 0 0 0 1033.5 1033.6 0.0
29/01:21am 3.2 1.7 2.9 98 0.1 CALM 0 0 0 0 1033.5 1033.6 0.0
29/01:13am 3.9 2.5 3.6 98 0.1 CALM 0 0 0 0 1033.5 1033.6 0.0
29/01:00am 3.7 2.3 3.4 98 0.1 CALM 0 0 0 0 1033.6 1033.7 0.0
29/12:50am 3.7 2.3 3.4 98 0.1 CALM 0 0 0 0 1033.6 1033.7 0.0
29/12:30am 3.7 2.3 3.3 97 0.2 CALM 0 0 0 0 1033.6 1033.7 0.0
29/12:00am 4.3 2.9 3.7 96 0.2 CALM 0 0 0 0 1033.5 1033.6 0.0
 
Date/Time
EST
Tmp

°C
App
Tmp
°C
Dew
Point
°C
Rel
Hum
%
Delta-T

°C
Wind Press
QNH
hPa
Press
MSL
hPa
Rain
since
9 am
mm
Dir
 
Spd
km/h
Gust
km/h
Spd
kts
Gust
kts
28/11:30pm 4.6 3.2 3.7 94 0.4 CALM 0 0 0 0 1033.4 1033.5 0.0
28/11:00pm 4.7 2.2 3.5 92 0.5 ESE 6 9 3 5 1033.6 1033.7 0.0
28/10:30pm 5.2 3.9 4.0 92 0.5 CALM 0 0 0 0 1033.4 1033.5 0.0
28/10:00pm 5.4 4.1 4.2 92 0.5 CALM 0 0 0 0 1033.2 1033.3 0.0
28/09:30pm 6.4 3.7 3.9 84 1.1 W 7 9 4 5 1033.2 1033.3 0.0
28/09:00pm 6.3 3.9 4.1 86 0.9 W 6 9 3 5 1033.1 1033.2 0.0
28/08:30pm 5.4 2.6 3.1 85 0.9 WSW 7 9 4 5 1033.2 1033.3 0.0
28/08:00pm 7.5 4.8 3.9 78 1.5 W 7 9 4 5 1033.1 1033.2 0.0
28/07:30pm 7.1 3.6 3.7 79 1.4 W 11 13 6 7 1033.1 1033.2 0.0

Latest Capital City Observations: Canberra | Sydney | Melbourne | Brisbane | Adelaide | Perth | Hobart | Darwin

Other Formats:

Comma delimited format used in spreadsheet applications
http://www.bom.gov.au/fwo/IDN60901/IDN60901.95753.axf

JavaScript Object Notation format (JSON) in row-major order
http://www.bom.gov.au/fwo/IDN60901/IDN60901.95753.json